createdAt,value
2023-04-18T00:01:01.862Z,6.57
2023-04-18T00:03:05.436Z,6.27
2023-04-18T00:05:09.550Z,6.13
2023-04-18T00:07:15.036Z,5.97
2023-04-18T00:09:18.431Z,6.97
2023-04-18T00:11:21.795Z,6.00
2023-04-18T00:13:28.393Z,6.07
2023-04-18T00:15:32.228Z,6.60
2023-04-18T00:17:39.576Z,7.43
2023-04-18T00:19:43.284Z,6.40
2023-04-18T00:21:47.020Z,6.17
2023-04-18T00:23:50.774Z,6.10
2023-04-18T00:25:54.067Z,5.80
2023-04-18T00:27:57.395Z,6.50
2023-04-18T00:30:00.823Z,5.43
2023-04-18T00:32:04.116Z,5.97
2023-04-18T00:34:08.891Z,5.50
2023-04-18T00:36:12.279Z,5.70
2023-04-18T00:38:17.075Z,5.70
2023-04-18T00:40:20.724Z,6.43
2023-04-18T00:42:25.377Z,6.00
2023-04-18T00:44:28.851Z,5.40
2023-04-18T00:46:32.288Z,5.80
2023-04-18T00:48:36.051Z,7.13
2023-04-18T00:50:42.244Z,5.90
2023-04-18T00:52:46.835Z,5.20
2023-04-18T00:54:50.736Z,5.80
2023-04-18T00:56:55.372Z,7.43
2023-04-18T00:58:59.270Z,6.90
2023-04-18T01:01:02.713Z,6.07
2023-04-18T01:03:08.622Z,6.30
2023-04-18T01:05:12.359Z,6.30
2023-04-18T01:07:17.046Z,6.40
2023-04-18T01:09:21.826Z,6.40
2023-04-18T01:11:25.379Z,5.33
2023-04-18T01:13:28.805Z,7.03
2023-04-18T01:15:32.437Z,6.63
2023-04-18T01:17:35.816Z,6.67
2023-04-18T01:19:39.408Z,6.90
2023-04-18T01:21:44.426Z,7.27
2023-04-18T01:23:52.251Z,6.27
2023-04-18T01:25:56.961Z,6.73
2023-04-18T01:28:02.520Z,6.97
2023-04-18T01:30:06.977Z,6.90
2023-04-18T01:32:10.331Z,8.50
2023-04-18T01:34:15.490Z,6.57
2023-04-18T01:36:19.076Z,7.00
2023-04-18T01:38:22.439Z,7.20
2023-04-18T01:40:26.023Z,6.70
2023-04-18T01:42:31.383Z,7.67
2023-04-18T01:44:34.691Z,7.60
2023-04-18T01:46:38.886Z,7.40
2023-04-18T01:48:42.340Z,7.27
2023-04-18T01:50:45.719Z,7.30
2023-04-18T01:52:49.027Z,7.07
2023-04-18T01:54:52.765Z,7.30
2023-04-18T01:56:56.084Z,7.60
2023-04-18T01:59:00.848Z,6.47
2023-04-18T02:01:04.816Z,7.00
2023-04-18T02:03:08.292Z,6.40
2023-04-18T02:05:11.804Z,7.27
2023-04-18T02:07:15.712Z,7.10
2023-04-18T02:09:19.162Z,6.13
2023-04-18T02:11:22.533Z,6.73
2023-04-18T02:13:25.956Z,8.00
2023-04-18T02:15:30.695Z,7.40
2023-04-18T02:17:35.565Z,7.60
2023-04-18T02:19:38.957Z,6.50
2023-04-18T02:21:44.505Z,7.30
2023-04-18T02:23:47.970Z,7.83
2023-04-18T02:25:52.885Z,6.60
2023-04-18T02:27:57.427Z,8.10
2023-04-18T02:30:00.775Z,7.93
2023-04-18T02:32:05.817Z,7.43
2023-04-18T02:34:09.565Z,8.27
2023-04-18T02:36:13.403Z,7.43
2023-04-18T02:38:18.911Z,7.43
2023-04-18T02:40:22.225Z,7.23
2023-04-18T02:42:25.608Z,6.47
2023-04-18T02:44:29.021Z,6.70
2023-04-18T02:46:32.391Z,8.00
2023-04-18T02:48:37.555Z,6.80
2023-04-18T02:50:41.908Z,6.90
2023-04-18T02:52:45.822Z,6.40
2023-04-18T02:54:49.126Z,7.33
2023-04-18T02:56:57.522Z,9.07
2023-04-18T02:59:32.911Z,9.17
2023-04-18T03:01:48.554Z,7.07
2023-04-18T03:03:57.962Z,7.00
2023-04-18T03:06:10.528Z,7.67
2023-04-18T03:08:14.472Z,7.17
2023-04-18T03:10:18.047Z,8.23
2023-04-18T03:12:21.539Z,8.50
2023-04-18T03:14:24.960Z,7.90
2023-04-18T03:16:32.168Z,7.60
2023-04-18T03:18:35.483Z,6.63
2023-04-18T03:20:40.952Z,7.57
2023-04-18T03:22:44.932Z,13.50
2023-04-18T03:24:49.436Z,9.90
2023-04-18T03:26:54.193Z,8.70
2023-04-18T03:29:02.767Z,10.00
2023-04-18T03:31:06.642Z,7.67
2023-04-18T03:33:14.802Z,7.50
2023-04-18T03:35:19.200Z,8.87
2023-04-18T03:37:23.961Z,8.47
2023-04-18T03:39:32.415Z,8.40
2023-04-18T03:41:36.302Z,8.60
2023-04-18T03:43:40.356Z,7.50
2023-04-18T03:45:44.352Z,7.37
2023-04-18T03:47:48.234Z,16.43
2023-04-18T03:49:54.150Z,12.60
2023-04-18T03:51:58.160Z,11.10
2023-04-18T03:54:02.891Z,11.23
2023-04-18T03:56:07.052Z,9.70
2023-04-18T03:58:23.898Z,9.07
2023-04-18T04:00:28.854Z,9.07
2023-04-18T04:02:38.243Z,8.07
2023-04-18T04:04:41.851Z,10.07
2023-04-18T04:06:47.212Z,10.57
2023-04-18T04:08:50.621Z,11.47
2023-04-18T04:10:59.420Z,12.20
2023-04-18T04:13:03.110Z,9.80
2023-04-18T04:15:12.859Z,9.70
2023-04-18T04:17:23.210Z,9.67
2023-04-18T04:19:29.674Z,9.13
2023-04-18T04:21:44.923Z,10.40
2023-04-18T04:23:55.152Z,9.30
2023-04-18T04:26:15.082Z,9.00
2023-04-18T04:28:26.268Z,9.40
2023-04-18T04:30:35.719Z,9.23
2023-04-18T04:32:39.195Z,11.73
2023-04-18T04:34:42.617Z,13.97
2023-04-18T04:36:48.519Z,12.73
2023-04-18T04:38:52.233Z,11.80
2023-04-18T04:41:00.123Z,10.63
2023-04-18T04:43:06.211Z,10.97
2023-04-18T04:45:13.835Z,10.60
2023-04-18T04:47:17.437Z,9.73
2023-04-18T04:49:21.114Z,9.70
2023-04-18T04:51:24.958Z,10.13
2023-04-18T04:53:30.352Z,9.40
2023-04-18T04:55:35.310Z,9.30
2023-04-18T04:57:40.824Z,9.03
2023-04-18T05:00:01.742Z,8.27
2023-04-18T05:02:05.635Z,10.17
2023-04-18T05:04:09.100Z,10.03
2023-04-18T05:06:13.999Z,10.40
2023-04-18T05:08:17.352Z,8.93
2023-04-18T05:10:21.027Z,9.10
2023-04-18T05:12:24.572Z,11.10
2023-04-18T05:14:27.954Z,12.20
2023-04-18T05:16:32.879Z,11.00
2023-04-18T05:18:39.047Z,9.43
2023-04-18T05:20:42.380Z,9.50
2023-04-18T05:22:45.804Z,12.53
2023-04-18T05:24:49.154Z,10.80
2023-04-18T05:26:52.575Z,10.80
2023-04-18T05:28:56.037Z,10.57
2023-04-18T05:31:02.073Z,10.17
2023-04-18T05:33:06.920Z,9.13
2023-04-18T05:35:10.772Z,10.13
2023-04-18T05:37:14.187Z,12.00
2023-04-18T05:39:17.703Z,11.63
2023-04-18T05:41:21.182Z,10.60
2023-04-18T05:43:25.452Z,11.40
2023-04-18T05:45:28.794Z,11.93
2023-04-18T05:47:33.534Z,10.27
2023-04-18T05:49:38.309Z,11.80
2023-04-18T05:51:41.655Z,10.83
2023-04-18T05:53:45.087Z,12.33
2023-04-18T05:55:48.893Z,10.83
2023-04-18T05:57:52.421Z,11.10
2023-04-18T05:59:55.777Z,10.57
2023-04-18T06:01:59.096Z,10.13
2023-04-18T06:04:02.535Z,10.67
2023-04-18T06:06:07.641Z,10.07
2023-04-18T06:08:11.088Z,10.67
2023-04-18T06:10:15.723Z,11.13
2023-04-18T06:12:19.019Z,11.00
2023-04-18T06:14:22.513Z,9.70
2023-04-18T06:16:26.161Z,9.47
2023-04-18T06:18:29.586Z,9.97
2023-04-18T06:20:32.994Z,10.30
2023-04-18T06:22:37.766Z,11.40
2023-04-18T06:24:41.251Z,9.07
2023-04-18T06:26:44.769Z,9.57
2023-04-18T06:28:48.105Z,9.53
2023-04-18T06:30:51.824Z,10.67
2023-04-18T06:32:55.201Z,9.10
2023-04-18T06:34:58.708Z,9.83
2023-04-18T06:37:02.075Z,8.60
2023-04-18T06:39:06.858Z,9.10
2023-04-18T06:41:10.161Z,9.37
2023-04-18T06:43:13.562Z,7.80
2023-04-18T06:45:17.276Z,8.80
2023-04-18T06:47:20.716Z,9.00
2023-04-18T06:49:26.503Z,8.60
2023-04-18T06:51:30.118Z,8.73
2023-04-18T06:53:33.527Z,9.00
2023-04-18T06:55:38.275Z,8.60
2023-04-18T06:57:42.614Z,8.73
2023-04-18T06:59:46.002Z,7.70
2023-04-18T07:01:49.540Z,8.50
2023-04-18T07:03:52.952Z,8.00
2023-04-18T07:05:56.591Z,8.03
2023-04-18T07:08:00.141Z,7.27
2023-04-18T07:10:03.513Z,7.83
2023-04-18T07:12:08.649Z,7.37
2023-04-18T07:14:12.968Z,8.20
2023-04-18T07:16:16.676Z,6.57
2023-04-18T07:18:30.222Z,8.30
2023-04-18T07:20:38.058Z,7.40
2023-04-18T07:22:41.983Z,7.10
2023-04-18T07:24:45.333Z,7.57
2023-04-18T07:26:48.709Z,6.93
2023-04-18T07:28:53.452Z,7.90
2023-04-18T07:30:57.890Z,6.30
2023-04-18T07:33:01.266Z,6.93
2023-04-18T07:35:05.254Z,6.87
2023-04-18T07:37:08.781Z,7.77
2023-04-18T07:39:12.189Z,7.97
2023-04-18T07:41:15.677Z,7.20
2023-04-18T07:43:20.794Z,7.27
2023-04-18T07:45:25.781Z,6.23
2023-04-18T07:47:30.559Z,7.40
2023-04-18T07:49:35.737Z,6.73
2023-04-18T07:51:39.100Z,7.00
2023-04-18T07:53:43.556Z,6.83
2023-04-18T07:55:47.220Z,5.87
2023-04-18T07:57:50.579Z,6.50
2023-04-18T07:59:54.153Z,6.73
2023-04-18T08:01:58.893Z,6.40
2023-04-18T08:04:02.504Z,7.20
2023-04-18T08:06:06.893Z,7.20
2023-04-18T08:08:11.510Z,7.07
2023-04-18T08:10:14.806Z,5.37
2023-04-18T08:12:18.265Z,6.47
2023-04-18T08:14:21.653Z,6.23
2023-04-18T08:16:25.575Z,7.43
2023-04-18T08:18:30.386Z,7.07
2023-04-18T08:20:34.313Z,6.83
2023-04-18T08:22:44.189Z,6.47
2023-04-18T08:25:05.446Z,7.00
2023-04-18T08:27:09.127Z,6.33
2023-04-18T08:29:12.883Z,6.60
2023-04-18T08:31:17.120Z,6.40
2023-04-18T08:33:20.473Z,6.40
2023-04-18T08:35:25.373Z,6.67
2023-04-18T08:37:29.275Z,6.80
2023-04-18T08:39:32.588Z,6.40
2023-04-18T08:41:37.977Z,6.53
2023-04-18T08:43:41.733Z,6.23
2023-04-18T08:45:46.114Z,5.43
2023-04-18T08:47:50.050Z,4.90
2023-04-18T08:49:53.825Z,6.20
2023-04-18T08:52:01.077Z,6.30
2023-04-18T08:54:08.001Z,5.80
2023-04-18T08:56:14.624Z,6.40
2023-04-18T08:58:22.262Z,6.13
2023-04-18T09:00:25.694Z,7.13
2023-04-18T09:02:38.887Z,6.80
2023-04-18T09:04:44.943Z,5.73
2023-04-18T09:06:53.476Z,6.70
2023-04-18T09:08:59.562Z,6.00
2023-04-18T09:11:28.666Z,6.57
2023-04-18T09:13:40.281Z,6.20
2023-04-18T09:15:56.073Z,6.83
2023-04-18T09:18:02.652Z,6.17
2023-04-18T09:20:10.144Z,7.23
2023-04-18T09:22:14.285Z,5.50
2023-04-18T09:24:24.000Z,5.77
2023-04-18T09:26:36.236Z,5.80
2023-04-18T09:28:41.226Z,5.40
2023-04-18T09:30:44.656Z,4.90
2023-04-18T09:32:59.352Z,5.27
2023-04-18T09:35:05.308Z,6.93
2023-04-18T09:37:10.962Z,6.60
2023-04-18T09:39:29.120Z,5.70
2023-04-18T09:41:33.028Z,5.70
2023-04-18T09:43:36.386Z,5.47
2023-04-18T09:45:40.154Z,5.37
2023-04-18T09:47:43.595Z,4.90
2023-04-18T09:49:48.422Z,5.20
2023-04-18T09:51:54.345Z,5.57
2023-04-18T09:53:57.925Z,5.50
2023-04-18T09:56:04.490Z,5.63
2023-04-18T09:58:08.778Z,6.73
2023-04-18T10:00:17.798Z,5.00
2023-04-18T10:02:23.568Z,5.67
2023-04-18T10:04:28.979Z,5.37
2023-04-18T10:06:35.430Z,5.27
2023-04-18T10:08:40.895Z,4.80
2023-04-18T10:10:44.832Z,6.07
2023-04-18T10:12:51.603Z,5.17
2023-04-18T10:14:55.953Z,5.67
2023-04-18T10:17:01.027Z,5.30
2023-04-18T10:19:25.853Z,5.30
2023-04-18T10:21:30.909Z,4.90
2023-04-18T10:23:39.275Z,6.20
2023-04-18T10:25:50.085Z,5.70
2023-04-18T10:27:59.643Z,5.90
2023-04-18T10:30:02.976Z,5.60
2023-04-18T10:32:07.434Z,5.40
2023-04-18T10:34:17.463Z,4.60
2023-04-18T10:36:21.374Z,5.83
2023-04-18T10:38:25.020Z,5.73
2023-04-18T10:40:33.911Z,6.00
2023-04-18T10:43:00.468Z,4.90
2023-04-18T10:45:18.515Z,5.27
2023-04-18T10:47:25.823Z,6.13
2023-04-18T10:49:32.863Z,6.20
2023-04-18T10:51:36.429Z,5.57
2023-04-18T10:53:40.834Z,5.70
2023-04-18T10:55:49.743Z,5.27
2023-04-18T10:57:56.064Z,5.80
2023-04-18T11:00:01.185Z,6.70
2023-04-18T11:02:19.471Z,5.20
2023-04-18T11:04:22.957Z,6.40
2023-04-18T11:06:27.194Z,5.80
2023-04-18T11:08:31.555Z,5.60
2023-04-18T11:10:35.101Z,5.13
2023-04-18T11:12:40.404Z,5.77
2023-04-18T11:14:44.777Z,7.10
2023-04-18T11:16:49.600Z,7.03
2023-04-18T11:18:53.036Z,5.70
2023-04-18T11:20:57.538Z,4.77
2023-04-18T11:23:01.807Z,5.50
2023-04-18T11:25:09.101Z,6.30
2023-04-18T11:27:13.675Z,5.57
2023-04-18T11:29:19.214Z,6.23
2023-04-18T11:31:24.644Z,6.53
2023-04-18T11:33:30.246Z,5.70
2023-04-18T11:35:38.244Z,5.10
2023-04-18T11:37:45.909Z,5.90
2023-04-18T11:39:49.480Z,6.10
2023-04-18T11:41:53.057Z,5.47
2023-04-18T11:43:57.318Z,8.50
2023-04-18T11:46:01.620Z,7.27
2023-04-18T11:48:06.012Z,5.90
2023-04-18T11:50:12.592Z,5.87
2023-04-18T11:52:16.107Z,5.80
2023-04-18T11:54:42.650Z,6.73
2023-04-18T11:56:49.682Z,6.23
2023-04-18T11:58:53.142Z,6.20
2023-04-18T12:00:56.523Z,6.93
2023-04-18T12:03:01.728Z,6.97
2023-04-18T12:05:06.299Z,6.63
2023-04-18T12:07:11.362Z,6.77
2023-04-18T12:09:14.841Z,5.93
2023-04-18T12:11:21.436Z,6.30
2023-04-18T12:13:32.620Z,6.90
2023-04-18T12:15:39.898Z,7.13
2023-04-18T12:17:45.166Z,5.03
2023-04-18T12:19:49.907Z,4.93
2023-04-18T12:21:57.733Z,6.87
2023-04-18T12:24:15.438Z,6.43
2023-04-18T12:26:22.947Z,6.97
2023-04-18T12:28:29.566Z,7.50
2023-04-18T12:30:37.464Z,6.77
2023-04-18T12:32:41.179Z,7.53
2023-04-18T12:34:44.585Z,6.70
2023-04-18T12:36:48.280Z,7.10
2023-04-18T12:38:51.944Z,6.13
2023-04-18T12:40:56.619Z,7.43
2023-04-18T12:43:01.578Z,5.50
2023-04-18T12:45:08.613Z,5.07
2023-04-18T12:47:11.956Z,4.90
2023-04-18T12:49:15.439Z,4.70
2023-04-18T12:51:18.755Z,4.60
2023-04-18T12:53:22.092Z,4.50
2023-04-18T12:55:26.052Z,4.40
2023-04-18T12:57:31.875Z,5.93
2023-04-18T12:59:35.446Z,5.87
2023-04-18T13:01:38.777Z,5.37
2023-04-18T13:03:42.207Z,4.53
2023-04-18T13:05:47.562Z,4.47
2023-04-18T13:07:58.665Z,4.47
2023-04-18T13:10:09.801Z,5.80
2023-04-18T13:12:13.139Z,5.37
2023-04-18T13:14:17.825Z,5.97
2023-04-18T13:16:21.445Z,5.97
2023-04-18T13:18:24.849Z,7.13
2023-04-18T13:20:28.438Z,6.53
2023-04-18T13:22:32.038Z,7.77
2023-04-18T13:24:36.991Z,7.10
2023-04-18T13:26:40.304Z,7.57
2023-04-18T13:28:43.655Z,7.50
2023-04-18T13:30:48.452Z,8.43
2023-04-18T13:32:51.784Z,8.97
2023-04-18T13:34:56.091Z,7.80
2023-04-18T13:36:59.804Z,7.90
2023-04-18T13:39:04.547Z,7.53
2023-04-18T13:41:12.905Z,7.90
2023-04-18T13:43:17.691Z,7.80
2023-04-18T13:45:21.635Z,8.30
2023-04-18T13:47:27.255Z,6.87
2023-04-18T13:49:30.994Z,6.23
2023-04-18T13:51:34.711Z,7.60
2023-04-18T13:53:38.043Z,6.23
2023-04-18T13:55:41.403Z,6.50
2023-04-18T13:57:44.696Z,7.20
2023-04-18T13:59:48.039Z,7.17
2023-04-18T14:01:52.362Z,7.77
2023-04-18T14:03:57.339Z,6.20
2023-04-18T14:06:00.805Z,6.70
2023-04-18T14:08:05.055Z,7.00
2023-04-18T14:10:09.304Z,6.20
2023-04-18T14:12:12.740Z,5.90
2023-04-18T14:14:16.091Z,6.40
2023-04-18T14:16:19.666Z,7.10
2023-04-18T14:18:24.549Z,6.50
2023-04-18T14:20:34.682Z,5.73
2023-04-18T14:22:38.092Z,6.90
2023-04-18T14:24:41.408Z,5.87
2023-04-18T14:26:44.973Z,5.67
2023-04-18T14:28:48.660Z,5.40
2023-04-18T14:30:52.743Z,6.77
2023-04-18T14:32:56.148Z,5.43
2023-04-18T14:34:59.894Z,6.77
2023-04-18T14:37:04.594Z,5.30
2023-04-18T14:39:08.300Z,6.23
2023-04-18T14:41:11.639Z,5.43
2023-04-18T14:43:15.057Z,5.43
2023-04-18T14:45:18.564Z,5.60
2023-04-18T14:47:24.244Z,6.40
2023-04-18T14:49:27.855Z,5.90
2023-04-18T14:51:31.282Z,5.67
2023-04-18T14:53:35.988Z,7.23
2023-04-18T14:55:39.424Z,7.10
2023-04-18T14:57:42.769Z,8.27
2023-04-18T14:59:46.142Z,6.50
2023-04-18T15:01:49.527Z,7.80
2023-04-18T15:03:53.624Z,6.50
2023-04-18T15:05:57.457Z,6.00
2023-04-18T15:08:01.107Z,7.13
2023-04-18T15:10:07.066Z,6.40
2023-04-18T15:12:10.425Z,6.93
2023-04-18T15:14:14.027Z,6.50
2023-04-18T15:16:17.736Z,8.00
2023-04-18T15:18:21.428Z,6.60
2023-04-18T15:20:25.118Z,6.73
2023-04-18T15:22:28.555Z,5.93
2023-04-18T15:24:31.895Z,5.90
2023-04-18T15:26:37.417Z,6.70
2023-04-18T15:28:40.809Z,7.00
2023-04-18T15:30:44.176Z,6.03
2023-04-18T15:32:48.387Z,6.93
2023-04-18T15:34:51.831Z,6.10
2023-04-18T15:36:55.176Z,5.47
2023-04-18T15:38:58.485Z,5.60
2023-04-18T15:41:01.873Z,6.03
2023-04-18T15:43:06.874Z,6.00
2023-04-18T15:45:11.603Z,5.20
2023-04-18T15:47:17.026Z,5.90
2023-04-18T15:49:20.866Z,6.03
2023-04-18T15:51:28.330Z,4.93
2023-04-18T15:53:31.866Z,6.20
2023-04-18T15:55:35.326Z,5.90
2023-04-18T15:57:38.774Z,6.70
2023-04-18T15:59:43.704Z,6.33
2023-04-18T16:01:47.196Z,6.50
2023-04-18T16:03:50.659Z,7.60
2023-04-18T16:05:54.125Z,7.63
2023-04-18T16:07:58.747Z,7.80
2023-04-18T16:10:03.662Z,6.37
2023-04-18T16:12:08.228Z,5.27
2023-04-18T16:14:11.689Z,5.53
2023-04-18T16:16:16.788Z,5.97
2023-04-18T16:18:20.164Z,5.40
2023-04-18T16:20:23.568Z,4.93
2023-04-18T16:22:26.948Z,5.30
2023-04-18T16:24:30.997Z,5.67
2023-04-18T16:26:34.401Z,5.97
2023-04-18T16:28:37.854Z,6.17
2023-04-18T16:30:43.703Z,5.00
2023-04-18T16:32:48.665Z,5.43
2023-04-18T16:34:53.084Z,5.00
2023-04-18T16:36:56.463Z,5.40
2023-04-18T16:38:59.768Z,4.87
2023-04-18T16:41:03.664Z,6.03
2023-04-18T16:43:07.024Z,5.43
2023-04-18T16:45:10.765Z,5.77
2023-04-18T16:47:14.143Z,7.53
2023-04-18T16:49:20.399Z,8.53
2023-04-18T16:51:23.746Z,7.33
2023-04-18T16:53:27.223Z,5.27
2023-04-18T16:55:30.560Z,4.70
2023-04-18T16:57:33.925Z,4.40
2023-04-18T16:59:37.364Z,4.37
2023-04-18T17:01:40.859Z,4.57
2023-04-18T17:03:44.652Z,5.27
2023-04-18T17:05:49.448Z,5.20
2023-04-18T17:07:52.929Z,4.70
2023-04-18T17:09:58.272Z,3.83
2023-04-18T17:12:01.815Z,4.13
2023-04-18T17:14:05.695Z,4.60
2023-04-18T17:16:09.210Z,3.30
2023-04-18T17:18:12.621Z,4.67
2023-04-18T17:20:17.000Z,5.10
2023-04-18T17:22:21.720Z,4.87
2023-04-18T17:24:25.130Z,5.67
2023-04-18T17:26:28.523Z,4.50
2023-04-18T17:28:31.813Z,5.03
2023-04-18T17:30:35.180Z,5.63
2023-04-18T17:32:42.823Z,4.80
2023-04-18T17:34:47.833Z,4.77
2023-04-18T17:36:51.253Z,4.47
2023-04-18T17:38:56.334Z,4.50
2023-04-18T17:41:00.809Z,5.70
2023-04-18T17:43:04.133Z,5.90
2023-04-18T17:45:09.653Z,5.13
2023-04-18T17:47:15.415Z,4.53
2023-04-18T17:49:21.890Z,5.40
2023-04-18T17:51:26.239Z,5.30
2023-04-18T17:53:31.994Z,5.30
2023-04-18T17:55:37.076Z,5.13
2023-04-18T17:57:40.437Z,4.77
2023-04-18T17:59:43.833Z,4.57
2023-04-18T18:01:47.384Z,4.57
2023-04-18T18:03:53.712Z,5.77
2023-04-18T18:05:57.281Z,4.53
2023-04-18T18:08:01.356Z,5.47
2023-04-18T18:10:06.335Z,5.50
2023-04-18T18:12:11.401Z,6.30
2023-04-18T18:14:14.874Z,4.63
2023-04-18T18:16:19.845Z,4.17
2023-04-18T18:18:24.126Z,5.33
2023-04-18T18:20:27.811Z,4.60
2023-04-18T18:22:31.261Z,4.10
2023-04-18T18:24:34.622Z,5.80
2023-04-18T18:26:38.002Z,5.27
2023-04-18T18:28:42.753Z,4.63
2023-04-18T18:30:47.750Z,5.90
2023-04-18T18:32:53.339Z,4.90
2023-04-18T18:34:56.879Z,4.30
2023-04-18T18:37:00.585Z,4.60
2023-04-18T18:39:03.985Z,5.53
2023-04-18T18:41:07.795Z,5.50
2023-04-18T18:43:11.151Z,4.87
2023-04-18T18:45:15.928Z,5.07
2023-04-18T18:47:19.936Z,3.90
2023-04-18T18:49:23.292Z,5.90
2023-04-18T18:51:27.073Z,4.37
2023-04-18T18:53:30.402Z,5.70
2023-04-18T18:55:33.690Z,6.47
2023-04-18T18:57:37.598Z,5.50
2023-04-18T18:59:41.523Z,5.50
2023-04-18T19:01:46.494Z,4.27
2023-04-18T19:03:50.136Z,5.17
2023-04-18T19:05:53.713Z,6.33
2023-04-18T19:07:57.192Z,5.70
2023-04-18T19:10:01.691Z,5.70
2023-04-18T19:12:06.065Z,4.67
2023-04-18T19:14:09.483Z,5.60
2023-04-18T19:16:13.104Z,5.60
2023-04-18T19:18:19.480Z,7.40
2023-04-18T19:20:23.695Z,7.33
2023-04-18T19:22:27.061Z,6.37
2023-04-18T19:24:31.798Z,7.97
2023-04-18T19:26:35.241Z,7.60
2023-04-18T19:28:38.919Z,6.97
2023-04-18T19:30:43.284Z,7.37
2023-04-18T19:32:46.767Z,6.63
2023-04-18T19:34:51.912Z,6.60
2023-04-18T19:36:55.301Z,6.30
2023-04-18T19:38:58.725Z,7.30
2023-04-18T19:41:02.172Z,6.10
2023-04-18T19:43:05.626Z,7.87
2023-04-18T19:45:11.268Z,6.10
2023-04-18T19:47:16.479Z,6.33
2023-04-18T19:49:19.921Z,6.27
2023-04-18T19:51:24.663Z,6.77
2023-04-18T19:53:28.036Z,6.30
2023-04-18T19:55:31.550Z,6.47
2023-04-18T19:57:38.979Z,6.60
2023-04-18T19:59:42.367Z,5.20
2023-04-18T20:01:46.017Z,5.33
2023-04-18T20:03:49.605Z,5.70
2023-04-18T20:05:53.097Z,7.77
2023-04-18T20:07:57.884Z,7.10
2023-04-18T20:10:01.492Z,8.47
2023-04-18T20:12:05.209Z,7.10
2023-04-18T20:14:09.943Z,7.47
2023-04-18T20:16:13.700Z,8.40
2023-04-18T20:18:17.124Z,8.37
2023-04-18T20:20:20.538Z,9.13
2023-04-18T20:22:24.813Z,9.20
2023-04-18T20:24:31.621Z,9.77
2023-04-18T20:26:34.986Z,9.50
2023-04-18T20:28:38.753Z,11.00
2023-04-18T20:30:43.086Z,8.30
2023-04-18T20:32:46.519Z,8.90
2023-04-18T20:34:49.937Z,8.67
2023-04-18T20:36:53.235Z,9.03
2023-04-18T20:38:56.590Z,8.20
2023-04-18T20:41:02.096Z,8.47
2023-04-18T20:43:06.720Z,6.97
2023-04-18T20:45:11.554Z,8.17
2023-04-18T20:47:15.897Z,11.63
2023-04-18T20:49:19.568Z,10.03
2023-04-18T20:51:22.899Z,10.13
2023-04-18T20:53:27.095Z,10.03
2023-04-18T20:55:30.940Z,8.60
2023-04-18T20:57:36.517Z,9.93
2023-04-18T20:59:39.851Z,10.47
2023-04-18T21:01:43.213Z,10.57
2023-04-18T21:03:46.879Z,11.10
2023-04-18T21:05:50.446Z,9.63
2023-04-18T21:07:53.763Z,8.00
2023-04-18T21:09:57.104Z,10.20
2023-04-18T21:12:00.446Z,9.67
2023-04-18T21:14:06.704Z,10.97
2023-04-18T21:16:10.834Z,10.73
2023-04-18T21:18:14.308Z,9.20
2023-04-18T21:20:17.673Z,9.80
2023-04-18T21:22:21.112Z,8.00
2023-04-18T21:24:24.500Z,11.27
2023-04-18T21:26:28.227Z,11.07
2023-04-18T21:28:31.560Z,9.50
2023-04-18T21:30:36.439Z,10.30
2023-04-18T21:32:39.868Z,10.10
2023-04-18T21:34:43.289Z,10.10
2023-04-18T21:36:46.584Z,9.63
2023-04-18T21:38:52.605Z,9.27
2023-04-18T21:40:55.975Z,8.90
2023-04-18T21:42:59.367Z,8.93
2023-04-18T21:45:02.788Z,8.20
2023-04-18T21:47:07.504Z,8.77
2023-04-18T21:49:11.153Z,7.20
2023-04-18T21:51:16.082Z,7.60
2023-04-18T21:53:19.360Z,6.67
2023-04-18T21:55:22.770Z,8.50
2023-04-18T21:57:26.128Z,9.07
2023-04-18T21:59:29.536Z,6.97
2023-04-18T22:01:34.374Z,8.47
2023-04-18T22:03:39.636Z,8.60
2023-04-18T22:05:44.063Z,8.50
2023-04-18T22:07:57.498Z,7.13
2023-04-18T22:10:05.710Z,7.60
2023-04-18T22:12:09.475Z,8.77
2023-04-18T22:14:14.521Z,8.00
2023-04-18T22:16:18.206Z,7.97
2023-04-18T22:18:21.884Z,7.07
2023-04-18T22:20:26.933Z,8.03
2023-04-18T22:22:30.401Z,7.50
2023-04-18T22:24:33.684Z,7.93
2023-04-18T22:26:37.129Z,6.37
2023-04-18T22:28:40.526Z,6.40
2023-04-18T22:30:43.863Z,6.70
2023-04-18T22:32:47.775Z,5.70
2023-04-18T22:34:51.138Z,7.10
2023-04-18T22:36:55.823Z,6.40
2023-04-18T22:38:59.130Z,9.03
2023-04-18T22:41:02.606Z,8.67
2023-04-18T22:43:05.991Z,8.50
2023-04-18T22:45:10.700Z,10.23
2023-04-18T22:47:14.275Z,10.87
2023-04-18T22:49:17.897Z,9.57
2023-04-18T22:51:23.373Z,9.43
2023-04-18T22:53:28.168Z,9.03
2023-04-18T22:55:31.510Z,8.70
2023-04-18T22:57:34.899Z,9.03
2023-04-18T22:59:38.443Z,9.63
2023-04-18T23:01:41.990Z,8.20
2023-04-18T23:03:45.534Z,9.50
2023-04-18T23:05:48.919Z,8.43
2023-04-18T23:07:52.232Z,9.57
2023-04-18T23:09:56.956Z,9.47
2023-04-18T23:12:00.295Z,8.53
2023-04-18T23:14:03.944Z,8.40
2023-04-18T23:16:08.560Z,10.03
2023-04-18T23:18:12.669Z,8.83
2023-04-18T23:20:16.433Z,8.80
2023-04-18T23:22:20.321Z,10.93
2023-04-18T23:24:23.639Z,7.97
2023-04-18T23:26:28.592Z,10.13
2023-04-18T23:28:32.031Z,7.93
2023-04-18T23:30:36.731Z,9.20
2023-04-18T23:32:40.714Z,7.40
2023-04-18T23:34:45.883Z,8.23
2023-04-18T23:36:49.350Z,7.17
2023-04-18T23:38:52.759Z,8.33
2023-04-18T23:40:56.062Z,7.97
2023-04-18T23:43:00.824Z,8.83
2023-04-18T23:45:05.775Z,7.70
2023-04-18T23:47:09.133Z,9.97
2023-04-18T23:49:12.638Z,10.00
2023-04-18T23:51:16.119Z,8.93
2023-04-18T23:53:20.387Z,9.67
2023-04-18T23:55:23.803Z,8.40
2023-04-18T23:57:27.281Z,8.60
2023-04-18T23:59:32.055Z,9.30
